sensor_id;sensor_type;location;lat;lon;timestamp;P1;durP1;ratioP1;P2;durP2;ratioP2
28437;SDS011;15667;52.376;9.708;2023-03-01T00:01:20;25.50;;;9.75;;
28437;SDS011;15667;52.376;9.708;2023-03-01T00:03:50;22.83;;;10.10;;
28437;SDS011;15667;52.376;9.708;2023-03-01T00:06:16;21.38;;;10.30;;
28437;SDS011;15667;52.376;9.708;2023-03-01T00:08:42;24.38;;;10.95;;
28437;SDS011;15667;52.376;9.708;2023-03-01T00:11:12;24.50;;;11.27;;
28437;SDS011;15667;52.376;9.708;2023-03-01T00:13:46;23.48;;;11.07;;
28437;SDS011;15667;52.376;9.708;2023-03-01T00:16:15;23.10;;;10.18;;
28437;SDS011;15667;52.376;9.708;2023-03-01T00:18:48;22.88;;;10.45;;
28437;SDS011;15667;52.376;9.708;2023-03-01T00:21:15;22.42;;;9.95;;
28437;SDS011;15667;52.376;9.708;2023-03-01T00:23:42;20.40;;;10.43;;
28437;SDS011;15667;52.376;9.708;2023-03-01T00:26:09;21.38;;;10.20;;
28437;SDS011;15667;52.376;9.708;2023-03-01T00:28:37;23.65;;;10.73;;
28437;SDS011;15667;52.376;9.708;2023-03-01T00:31:03;20.27;;;10.18;;
28437;SDS011;15667;52.376;9.708;2023-03-01T00:33:30;22.90;;;10.35;;
28437;SDS011;15667;52.376;9.708;2023-03-01T00:35:57;22.02;;;9.85;;
28437;SDS011;15667;52.376;9.708;2023-03-01T00:38:24;22.75;;;10.60;;
28437;SDS011;15667;52.376;9.708;2023-03-01T00:40:49;20.55;;;9.65;;
28437;SDS011;15667;52.376;9.708;2023-03-01T00:43:15;24.50;;;10.70;;
28437;SDS011;15667;52.376;9.708;2023-03-01T00:45:40;21.30;;;10.73;;
28437;SDS011;15667;52.376;9.708;2023-03-01T00:48:06;23.45;;;10.20;;
28437;SDS011;15667;52.376;9.708;2023-03-01T00:50:32;23.73;;;10.23;;
28437;SDS011;15667;52.376;9.708;2023-03-01T00:52:57;24.20;;;10.90;;
28437;SDS011;15667;52.376;9.708;2023-03-01T00:55:23;22.25;;;10.23;;
28437;SDS011;15667;52.376;9.708;2023-03-01T00:57:49;24.30;;;11.00;;
28437;SDS011;15667;52.376;9.708;2023-03-01T01:00:15;28.52;;;11.35;;
28437;SDS011;15667;52.376;9.708;2023-03-01T01:02:42;20.70;;;10.63;;
28437;SDS011;15667;52.376;9.708;2023-03-01T01:05:07;20.05;;;10.23;;
28437;SDS011;15667;52.376;9.708;2023-03-01T01:07:33;22.33;;;11.02;;
28437;SDS011;15667;52.376;9.708;2023-03-01T01:09:59;24.35;;;10.93;;
28437;SDS011;15667;52.376;9.708;2023-03-01T01:12:24;24.80;;;10.60;;
28437;SDS011;15667;52.376;9.708;2023-03-01T01:14:50;23.55;;;11.18;;
28437;SDS011;15667;52.376;9.708;2023-03-01T01:17:15;21.13;;;10.63;;
28437;SDS011;15667;52.376;9.708;2023-03-01T01:19:41;19.77;;;9.93;;
28437;SDS011;15667;52.376;9.708;2023-03-01T01:22:07;24.70;;;10.77;;
28437;SDS011;15667;52.376;9.708;2023-03-01T01:24:33;23.30;;;9.82;;
28437;SDS011;15667;52.376;9.708;2023-03-01T01:26:58;29.30;;;10.68;;
28437;SDS011;15667;52.376;9.708;2023-03-01T01:29:24;20.58;;;10.07;;
28437;SDS011;15667;52.376;9.708;2023-03-01T01:31:50;23.83;;;10.38;;
28437;SDS011;15667;52.376;9.708;2023-03-01T01:34:16;26.77;;;10.85;;
28437;SDS011;15667;52.376;9.708;2023-03-01T01:36:47;22.40;;;10.77;;
28437;SDS011;15667;52.376;9.708;2023-03-01T01:39:14;22.85;;;10.20;;
28437;SDS011;15667;52.376;9.708;2023-03-01T01:41:40;23.98;;;10.50;;
28437;SDS011;15667;52.376;9.708;2023-03-01T01:46:40;21.38;;;9.95;;
28437;SDS011;15667;52.376;9.708;2023-03-01T01:51:47;20.92;;;9.88;;
28437;SDS011;15667;52.376;9.708;2023-03-01T01:54:25;21.65;;;10.38;;
28437;SDS011;15667;52.376;9.708;2023-03-01T01:57:05;23.08;;;10.02;;
28437;SDS011;15667;52.376;9.708;2023-03-01T01:59:54;27.88;;;10.77;;
28437;SDS011;15667;52.376;9.708;2023-03-01T02:02:23;19.40;;;9.57;;
28437;SDS011;15667;52.376;9.708;2023-03-01T02:04:52;20.92;;;10.25;;
28437;SDS011;15667;52.376;9.708;2023-03-01T02:07:23;26.92;;;10.82;;
28437;SDS011;15667;52.376;9.708;2023-03-01T02:09:51;23.42;;;10.43;;
28437;SDS011;15667;52.376;9.708;2023-03-01T02:12:18;19.52;;;10.38;;
28437;SDS011;15667;52.376;9.708;2023-03-01T02:14:47;23.92;;;11.00;;
28437;SDS011;15667;52.376;9.708;2023-03-01T02:17:14;23.92;;;10.52;;
28437;SDS011;15667;52.376;9.708;2023-03-01T02:22:25;23.92;;;10.85;;
28437;SDS011;15667;52.376;9.708;2023-03-01T02:28:29;24.63;;;10.93;;
28437;SDS011;15667;52.376;9.708;2023-03-01T02:30:41;21.83;;;10.00;;
28437;SDS011;15667;52.376;9.708;2023-03-01T02:33:28;25.35;;;10.95;;
28437;SDS011;15667;52.376;9.708;2023-03-01T02:35:57;24.13;;;10.68;;
28437;SDS011;15667;52.376;9.708;2023-03-01T02:38:25;22.45;;;10.68;;
28437;SDS011;15667;52.376;9.708;2023-03-01T02:40:52;25.15;;;10.77;;
28437;SDS011;15667;52.376;9.708;2023-03-01T02:43:20;23.08;;;10.25;;
28437;SDS011;15667;52.376;9.708;2023-03-01T02:45:50;20.38;;;10.57;;
28437;SDS011;15667;52.376;9.708;2023-03-01T02:48:18;22.05;;;10.57;;
28437;SDS011;15667;52.376;9.708;2023-03-01T02:50:52;20.70;;;10.25;;
28437;SDS011;15667;52.376;9.708;2023-03-01T02:56:37;23.25;;;11.25;;
28437;SDS011;15667;52.376;9.708;2023-03-01T02:59:03;24.40;;;10.30;;
28437;SDS011;15667;52.376;9.708;2023-03-01T03:01:29;21.73;;;10.68;;
28437;SDS011;15667;52.376;9.708;2023-03-01T03:04:02;25.38;;;10.48;;
28437;SDS011;15667;52.376;9.708;2023-03-01T03:06:29;24.02;;;10.35;;
28437;SDS011;15667;52.376;9.708;2023-03-01T03:08:54;22.83;;;11.05;;
28437;SDS011;15667;52.376;9.708;2023-03-01T03:11:20;22.48;;;10.38;;
28437;SDS011;15667;52.376;9.708;2023-03-01T03:13:46;22.25;;;9.98;;
28437;SDS011;15667;52.376;9.708;2023-03-01T03:16:13;26.65;;;10.65;;
28437;SDS011;15667;52.376;9.708;2023-03-01T03:18:39;23.73;;;10.82;;
28437;SDS011;15667;52.376;9.708;2023-03-01T03:21:09;19.35;;;9.75;;
28437;SDS011;15667;52.376;9.708;2023-03-01T03:23:36;27.65;;;10.50;;
28437;SDS011;15667;52.376;9.708;2023-03-01T03:26:02;23.20;;;11.15;;
28437;SDS011;15667;52.376;9.708;2023-03-01T03:28:29;20.63;;;9.63;;
28437;SDS011;15667;52.376;9.708;2023-03-01T03:30:55;24.75;;;11.23;;
28437;SDS011;15667;52.376;9.708;2023-03-01T03:33:21;24.55;;;11.20;;
28437;SDS011;15667;52.376;9.708;2023-03-01T03:35:48;20.35;;;10.60;;
28437;SDS011;15667;52.376;9.708;2023-03-01T03:38:15;25.33;;;10.43;;
28437;SDS011;15667;52.376;9.708;2023-03-01T03:43:21;25.63;;;10.43;;
28437;SDS011;15667;52.376;9.708;2023-03-01T03:45:48;23.83;;;11.23;;
28437;SDS011;15667;52.376;9.708;2023-03-01T03:48:16;22.48;;;11.00;;
28437;SDS011;15667;52.376;9.708;2023-03-01T03:50:47;25.60;;;11.52;;
28437;SDS011;15667;52.376;9.708;2023-03-01T03:53:17;25.70;;;11.57;;
28437;SDS011;15667;52.376;9.708;2023-03-01T03:55:43;25.48;;;11.60;;
28437;SDS011;15667;52.376;9.708;2023-03-01T03:58:09;29.67;;;11.95;;
28437;SDS011;15667;52.376;9.708;2023-03-01T04:00:39;26.23;;;11.32;;
28437;SDS011;15667;52.376;9.708;2023-03-01T04:03:07;31.42;;;11.43;;
28437;SDS011;15667;52.376;9.708;2023-03-01T04:05:33;27.02;;;12.02;;
28437;SDS011;15667;52.376;9.708;2023-03-01T04:08:00;27.50;;;11.88;;
28437;SDS011;15667;52.376;9.708;2023-03-01T04:10:32;27.63;;;11.32;;
28437;SDS011;15667;52.376;9.708;2023-03-01T04:13:01;26.60;;;11.73;;
28437;SDS011;15667;52.376;9.708;2023-03-01T04:15:27;25.05;;;11.05;;
28437;SDS011;15667;52.376;9.708;2023-03-01T04:17:53;28.67;;;11.85;;
28437;SDS011;15667;52.376;9.708;2023-03-01T04:20:20;22.67;;;11.18;;
28437;SDS011;15667;52.376;9.708;2023-03-01T04:22:51;23.20;;;11.13;;
28437;SDS011;15667;52.376;9.708;2023-03-01T04:25:22;27.13;;;11.07;;
28437;SDS011;15667;52.376;9.708;2023-03-01T04:27:48;22.02;;;11.10;;
28437;SDS011;15667;52.376;9.708;2023-03-01T04:30:14;24.08;;;11.13;;
28437;SDS011;15667;52.376;9.708;2023-03-01T04:32:39;24.98;;;11.05;;
28437;SDS011;15667;52.376;9.708;2023-03-01T04:35:05;27.02;;;11.43;;
28437;SDS011;15667;52.376;9.708;2023-03-01T04:37:31;27.48;;;10.95;;
28437;SDS011;15667;52.376;9.708;2023-03-01T04:39:57;26.33;;;12.05;;
28437;SDS011;15667;52.376;9.708;2023-03-01T04:42:23;23.23;;;11.55;;
28437;SDS011;15667;52.376;9.708;2023-03-01T04:44:48;24.55;;;11.23;;
28437;SDS011;15667;52.376;9.708;2023-03-01T04:47:16;26.02;;;11.65;;
28437;SDS011;15667;52.376;9.708;2023-03-01T04:49:42;30.30;;;12.13;;
28437;SDS011;15667;52.376;9.708;2023-03-01T04:52:08;23.88;;;11.52;;
28437;SDS011;15667;52.376;9.708;2023-03-01T04:54:34;24.20;;;11.77;;
28437;SDS011;15667;52.376;9.708;2023-03-01T04:57:01;25.08;;;11.18;;
28437;SDS011;15667;52.376;9.708;2023-03-01T04:59:28;24.92;;;11.95;;
28437;SDS011;15667;52.376;9.708;2023-03-01T05:01:54;22.45;;;10.77;;
28437;SDS011;15667;52.376;9.708;2023-03-01T05:04:21;21.02;;;10.90;;
28437;SDS011;15667;52.376;9.708;2023-03-01T05:06:50;28.75;;;12.15;;
28437;SDS011;15667;52.376;9.708;2023-03-01T05:09:16;23.73;;;11.13;;
28437;SDS011;15667;52.376;9.708;2023-03-01T05:11:42;22.13;;;11.30;;
28437;SDS011;15667;52.376;9.708;2023-03-01T05:14:08;24.00;;;11.70;;
28437;SDS011;15667;52.376;9.708;2023-03-01T05:16:34;24.27;;;11.48;;
28437;SDS011;15667;52.376;9.708;2023-03-01T05:19:01;24.13;;;11.30;;
28437;SDS011;15667;52.376;9.708;2023-03-01T05:21:36;23.15;;;10.30;;
28437;SDS011;15667;52.376;9.708;2023-03-01T05:24:22;23.33;;;11.60;;
28437;SDS011;15667;52.376;9.708;2023-03-01T05:26:48;27.02;;;11.43;;
28437;SDS011;15667;52.376;9.708;2023-03-01T05:29:14;24.35;;;11.75;;
28437;SDS011;15667;52.376;9.708;2023-03-01T05:31:39;28.67;;;11.98;;
28437;SDS011;15667;52.376;9.708;2023-03-01T05:34:05;28.35;;;11.40;;
28437;SDS011;15667;52.376;9.708;2023-03-01T05:36:31;25.60;;;11.43;;
28437;SDS011;15667;52.376;9.708;2023-03-01T05:38:56;24.63;;;12.02;;
28437;SDS011;15667;52.376;9.708;2023-03-01T05:41:22;27.08;;;11.80;;
28437;SDS011;15667;52.376;9.708;2023-03-01T05:43:48;28.58;;;11.30;;
28437;SDS011;15667;52.376;9.708;2023-03-01T05:46:13;25.48;;;11.20;;
28437;SDS011;15667;52.376;9.708;2023-03-01T05:48:40;27.23;;;12.70;;
28437;SDS011;15667;52.376;9.708;2023-03-01T05:51:05;27.30;;;11.82;;
28437;SDS011;15667;52.376;9.708;2023-03-01T05:53:31;26.58;;;12.75;;
28437;SDS011;15667;52.376;9.708;2023-03-01T05:55:57;25.55;;;11.43;;
28437;SDS011;15667;52.376;9.708;2023-03-01T05:58:23;25.17;;;11.85;;
28437;SDS011;15667;52.376;9.708;2023-03-01T06:00:49;29.52;;;12.02;;
28437;SDS011;15667;52.376;9.708;2023-03-01T06:03:15;25.77;;;11.73;;
28437;SDS011;15667;52.376;9.708;2023-03-01T06:05:42;25.58;;;11.57;;
28437;SDS011;15667;52.376;9.708;2023-03-01T06:08:09;27.27;;;11.68;;
28437;SDS011;15667;52.376;9.708;2023-03-01T06:10:36;31.73;;;12.32;;
28437;SDS011;15667;52.376;9.708;2023-03-01T06:13:02;27.75;;;11.68;;
28437;SDS011;15667;52.376;9.708;2023-03-01T06:15:31;24.50;;;11.52;;
28437;SDS011;15667;52.376;9.708;2023-03-01T06:17:57;24.85;;;12.23;;
28437;SDS011;15667;52.376;9.708;2023-03-01T06:20:23;27.58;;;11.82;;
28437;SDS011;15667;52.376;9.708;2023-03-01T06:22:50;26.45;;;11.00;;
28437;SDS011;15667;52.376;9.708;2023-03-01T06:25:17;24.55;;;12.30;;
28437;SDS011;15667;52.376;9.708;2023-03-01T06:27:45;34.08;;;13.75;;
28437;SDS011;15667;52.376;9.708;2023-03-01T06:30:12;25.75;;;11.93;;
28437;SDS011;15667;52.376;9.708;2023-03-01T06:32:39;28.05;;;13.23;;
28437;SDS011;15667;52.376;9.708;2023-03-01T06:35:09;32.33;;;14.57;;
28437;SDS011;15667;52.376;9.708;2023-03-01T06:37:36;37.63;;;14.02;;
28437;SDS011;15667;52.376;9.708;2023-03-01T06:40:02;34.45;;;14.18;;
28437;SDS011;15667;52.376;9.708;2023-03-01T06:42:33;34.75;;;14.48;;
28437;SDS011;15667;52.376;9.708;2023-03-01T06:45:06;34.22;;;14.25;;
28437;SDS011;15667;52.376;9.708;2023-03-01T06:47:32;37.10;;;14.63;;
28437;SDS011;15667;52.376;9.708;2023-03-01T06:49:59;29.00;;;13.45;;
28437;SDS011;15667;52.376;9.708;2023-03-01T06:52:25;34.03;;;13.50;;
28437;SDS011;15667;52.376;9.708;2023-03-01T06:54:51;26.00;;;12.75;;
28437;SDS011;15667;52.376;9.708;2023-03-01T06:57:17;31.90;;;13.32;;
28437;SDS011;15667;52.376;9.708;2023-03-01T06:59:43;33.85;;;13.40;;
28437;SDS011;15667;52.376;9.708;2023-03-01T07:02:09;32.45;;;12.70;;
28437;SDS011;15667;52.376;9.708;2023-03-01T07:04:36;25.75;;;12.50;;
28437;SDS011;15667;52.376;9.708;2023-03-01T07:07:03;25.48;;;12.38;;
28437;SDS011;15667;52.376;9.708;2023-03-01T07:09:28;33.67;;;13.68;;
28437;SDS011;15667;52.376;9.708;2023-03-01T07:11:54;26.38;;;13.00;;
28437;SDS011;15667;52.376;9.708;2023-03-01T07:14:20;30.00;;;13.63;;
28437;SDS011;15667;52.376;9.708;2023-03-01T07:16:46;34.33;;;13.68;;
28437;SDS011;15667;52.376;9.708;2023-03-01T07:19:12;227.60;;;73.15;;
28437;SDS011;15667;52.376;9.708;2023-03-01T07:21:38;158.80;;;51.92;;
28437;SDS011;15667;52.376;9.708;2023-03-01T07:24:05;80.10;;;30.65;;
28437;SDS011;15667;52.376;9.708;2023-03-01T07:26:31;37.58;;;16.60;;
28437;SDS011;15667;52.376;9.708;2023-03-01T07:29:00;30.45;;;13.70;;
28437;SDS011;15667;52.376;9.708;2023-03-01T07:31:27;31.70;;;12.20;;
28437;SDS011;15667;52.376;9.708;2023-03-01T07:33:53;30.20;;;12.38;;
28437;SDS011;15667;52.376;9.708;2023-03-01T07:36:22;28.85;;;13.13;;
28437;SDS011;15667;52.376;9.708;2023-03-01T07:38:48;30.42;;;12.10;;
28437;SDS011;15667;52.376;9.708;2023-03-01T07:41:13;27.98;;;13.05;;
28437;SDS011;15667;52.376;9.708;2023-03-01T07:43:39;25.83;;;12.70;;
28437;SDS011;15667;52.376;9.708;2023-03-01T07:46:05;27.77;;;12.45;;
28437;SDS011;15667;52.376;9.708;2023-03-01T07:48:32;28.73;;;12.95;;
28437;SDS011;15667;52.376;9.708;2023-03-01T07:51:02;28.83;;;13.65;;
28437;SDS011;15667;52.376;9.708;2023-03-01T07:53:29;29.00;;;12.93;;
28437;SDS011;15667;52.376;9.708;2023-03-01T07:56:03;29.70;;;12.98;;
28437;SDS011;15667;52.376;9.708;2023-03-01T07:58:40;23.80;;;10.63;;
28437;SDS011;15667;52.376;9.708;2023-03-01T08:01:08;34.30;;;13.02;;
28437;SDS011;15667;52.376;9.708;2023-03-01T08:03:36;29.70;;;13.73;;
28437;SDS011;15667;52.376;9.708;2023-03-01T08:06:03;33.05;;;12.63;;
28437;SDS011;15667;52.376;9.708;2023-03-01T08:08:30;32.78;;;12.73;;
28437;SDS011;15667;52.376;9.708;2023-03-01T08:10:57;32.88;;;12.73;;
28437;SDS011;15667;52.376;9.708;2023-03-01T08:13:26;24.52;;;11.18;;
28437;SDS011;15667;52.376;9.708;2023-03-01T08:15:52;23.05;;;11.25;;
28437;SDS011;15667;52.376;9.708;2023-03-01T08:18:19;27.35;;;11.88;;
28437;SDS011;15667;52.376;9.708;2023-03-01T08:20:47;27.83;;;11.00;;
28437;SDS011;15667;52.376;9.708;2023-03-01T08:23:13;28.10;;;11.43;;
28437;SDS011;15667;52.376;9.708;2023-03-01T08:25:39;22.05;;;9.73;;
28437;SDS011;15667;52.376;9.708;2023-03-01T08:28:05;22.92;;;10.13;;
28437;SDS011;15667;52.376;9.708;2023-03-01T08:30:30;20.58;;;8.23;;
28437;SDS011;15667;52.376;9.708;2023-03-01T08:32:56;23.73;;;8.98;;
28437;SDS011;15667;52.376;9.708;2023-03-01T08:35:22;24.77;;;8.00;;
28437;SDS011;15667;52.376;9.708;2023-03-01T08:37:48;16.30;;;7.38;;
28437;SDS011;15667;52.376;9.708;2023-03-01T08:40:14;15.10;;;6.28;;
28437;SDS011;15667;52.376;9.708;2023-03-01T08:42:40;14.65;;;6.35;;
28437;SDS011;15667;52.376;9.708;2023-03-01T08:45:08;15.30;;;6.15;;
28437;SDS011;15667;52.376;9.708;2023-03-01T08:47:34;17.92;;;5.80;;
28437;SDS011;15667;52.376;9.708;2023-03-01T08:50:01;10.68;;;5.22;;
28437;SDS011;15667;52.376;9.708;2023-03-01T08:52:27;11.73;;;5.18;;
28437;SDS011;15667;52.376;9.708;2023-03-01T08:54:52;12.68;;;5.40;;
28437;SDS011;15667;52.376;9.708;2023-03-01T08:57:18;16.08;;;5.78;;
28437;SDS011;15667;52.376;9.708;2023-03-01T08:59:44;12.45;;;4.97;;
28437;SDS011;15667;52.376;9.708;2023-03-01T09:02:13;12.10;;;5.30;;
28437;SDS011;15667;52.376;9.708;2023-03-01T09:04:41;17.88;;;5.95;;
28437;SDS011;15667;52.376;9.708;2023-03-01T09:07:07;13.38;;;5.75;;
28437;SDS011;15667;52.376;9.708;2023-03-01T09:09:34;12.85;;;5.65;;
28437;SDS011;15667;52.376;9.708;2023-03-01T09:12:00;12.30;;;5.55;;
28437;SDS011;15667;52.376;9.708;2023-03-01T09:14:27;12.02;;;5.10;;
28437;SDS011;15667;52.376;9.708;2023-03-01T09:16:53;9.40;;;4.65;;
28437;SDS011;15667;52.376;9.708;2023-03-01T09:19:19;12.52;;;4.82;;
28437;SDS011;15667;52.376;9.708;2023-03-01T09:21:44;13.18;;;5.22;;
28437;SDS011;15667;52.376;9.708;2023-03-01T09:24:17;11.13;;;5.07;;
28437;SDS011;15667;52.376;9.708;2023-03-01T09:26:44;12.75;;;4.63;;
28437;SDS011;15667;52.376;9.708;2023-03-01T09:29:13;12.13;;;5.25;;
28437;SDS011;15667;52.376;9.708;2023-03-01T09:31:39;9.93;;;5.00;;
28437;SDS011;15667;52.376;9.708;2023-03-01T09:34:05;15.23;;;5.35;;
28437;SDS011;15667;52.376;9.708;2023-03-01T09:36:31;11.43;;;4.72;;
28437;SDS011;15667;52.376;9.708;2023-03-01T09:38:58;12.35;;;4.82;;
28437;SDS011;15667;52.376;9.708;2023-03-01T09:44:10;12.43;;;4.25;;
28437;SDS011;15667;52.376;9.708;2023-03-01T09:46:49;7.50;;;4.05;;
28437;SDS011;15667;52.376;9.708;2023-03-01T09:49:35;8.20;;;4.50;;
28437;SDS011;15667;52.376;9.708;2023-03-01T09:54:54;9.48;;;4.10;;
28437;SDS011;15667;52.376;9.708;2023-03-01T09:57:28;13.00;;;4.68;;
28437;SDS011;15667;52.376;9.708;2023-03-01T10:00:39;14.15;;;4.30;;
28437;SDS011;15667;52.376;9.708;2023-03-01T10:03:23;11.55;;;4.50;;
28437;SDS011;15667;52.376;9.708;2023-03-01T10:05:59;8.60;;;4.50;;
28437;SDS011;15667;52.376;9.708;2023-03-01T10:08:36;9.95;;;4.57;;
28437;SDS011;15667;52.376;9.708;2023-03-01T10:11:27;9.35;;;4.53;;
28437;SDS011;15667;52.376;9.708;2023-03-01T10:16:57;16.80;;;4.80;;
28437;SDS011;15667;52.376;9.708;2023-03-01T10:19:45;14.32;;;5.43;;
28437;SDS011;15667;52.376;9.708;2023-03-01T10:22:18;11.52;;;5.10;;
28437;SDS011;15667;52.376;9.708;2023-03-01T10:24:51;11.07;;;5.53;;
28437;SDS011;15667;52.376;9.708;2023-03-01T10:27:25;11.70;;;5.50;;
28437;SDS011;15667;52.376;9.708;2023-03-01T10:30:10;16.48;;;5.28;;
28437;SDS011;15667;52.376;9.708;2023-03-01T10:32:56;12.80;;;5.45;;
28437;SDS011;15667;52.376;9.708;2023-03-01T10:35:26;12.75;;;5.32;;
28437;SDS011;15667;52.376;9.708;2023-03-01T10:38:06;12.95;;;5.32;;
28437;SDS011;15667;52.376;9.708;2023-03-01T10:40:34;14.13;;;5.53;;
28437;SDS011;15667;52.376;9.708;2023-03-01T10:43:02;10.27;;;4.70;;
28437;SDS011;15667;52.376;9.708;2023-03-01T10:50:33;10.13;;;4.65;;
28437;SDS011;15667;52.376;9.708;2023-03-01T10:53:02;8.80;;;4.93;;
28437;SDS011;15667;52.376;9.708;2023-03-01T11:03:18;7.72;;;4.03;;
28437;SDS011;15667;52.376;9.708;2023-03-01T11:05:51;8.98;;;4.30;;
28437;SDS011;15667;52.376;9.708;2023-03-01T11:08:28;11.30;;;4.50;;
28437;SDS011;15667;52.376;9.708;2023-03-01T11:11:03;9.43;;;3.78;;
28437;SDS011;15667;52.376;9.708;2023-03-01T11:13:30;5.20;;;3.08;;
28437;SDS011;15667;52.376;9.708;2023-03-01T11:16:00;7.65;;;3.10;;
28437;SDS011;15667;52.376;9.708;2023-03-01T11:18:34;8.07;;;3.63;;
28437;SDS011;15667;52.376;9.708;2023-03-01T11:21:00;6.15;;;3.55;;
28437;SDS011;15667;52.376;9.708;2023-03-01T11:23:28;8.23;;;3.92;;
28437;SDS011;15667;52.376;9.708;2023-03-01T11:25:56;6.63;;;3.50;;
28437;SDS011;15667;52.376;9.708;2023-03-01T11:28:30;7.95;;;3.55;;
28437;SDS011;15667;52.376;9.708;2023-03-01T11:31:07;7.25;;;4.00;;
28437;SDS011;15667;52.376;9.708;2023-03-01T11:33:41;6.30;;;3.55;;
28437;SDS011;15667;52.376;9.708;2023-03-01T11:36:25;6.25;;;3.60;;
28437;SDS011;15667;52.376;9.708;2023-03-01T11:38:57;5.78;;;3.63;;
28437;SDS011;15667;52.376;9.708;2023-03-01T11:41:43;6.75;;;3.45;;
28437;SDS011;15667;52.376;9.708;2023-03-01T11:44:14;8.65;;;3.80;;
28437;SDS011;15667;52.376;9.708;2023-03-01T11:47:08;9.38;;;4.25;;
28437;SDS011;15667;52.376;9.708;2023-03-01T11:49:40;6.63;;;3.67;;
28437;SDS011;15667;52.376;9.708;2023-03-01T11:52:29;9.95;;;3.70;;
28437;SDS011;15667;52.376;9.708;2023-03-01T11:55:43;7.78;;;3.33;;
28437;SDS011;15667;52.376;9.708;2023-03-01T12:07:17;6.85;;;3.65;;
28437;SDS011;15667;52.376;9.708;2023-03-01T12:12:44;6.83;;;3.20;;
28437;SDS011;15667;52.376;9.708;2023-03-01T12:18:03;5.95;;;3.33;;
28437;SDS011;15667;52.376;9.708;2023-03-01T12:20:36;5.82;;;2.88;;
28437;SDS011;15667;52.376;9.708;2023-03-01T12:28:38;7.38;;;3.15;;
28437;SDS011;15667;52.376;9.708;2023-03-01T12:40:30;6.97;;;3.50;;
28437;SDS011;15667;52.376;9.708;2023-03-01T12:51:13;7.30;;;3.15;;
28437;SDS011;15667;52.376;9.708;2023-03-01T12:53:44;6.95;;;3.40;;
28437;SDS011;15667;52.376;9.708;2023-03-01T12:56:23;7.80;;;3.38;;
28437;SDS011;15667;52.376;9.708;2023-03-01T12:58:54;7.70;;;3.78;;
28437;SDS011;15667;52.376;9.708;2023-03-01T13:10:39;6.90;;;3.50;;
28437;SDS011;15667;52.376;9.708;2023-03-01T13:15:49;6.93;;;3.50;;
28437;SDS011;15667;52.376;9.708;2023-03-01T13:20:48;6.68;;;3.40;;
28437;SDS011;15667;52.376;9.708;2023-03-01T13:33:49;7.07;;;3.25;;
28437;SDS011;15667;52.376;9.708;2023-03-01T13:49:36;8.00;;;3.55;;
28437;SDS011;15667;52.376;9.708;2023-03-01T13:55:06;7.85;;;3.58;;
28437;SDS011;15667;52.376;9.708;2023-03-01T13:57:39;6.93;;;3.15;;
28437;SDS011;15667;52.376;9.708;2023-03-01T14:00:07;6.05;;;3.60;;
28437;SDS011;15667;52.376;9.708;2023-03-01T14:02:59;4.18;;;2.80;;
28437;SDS011;15667;52.376;9.708;2023-03-01T14:05:35;4.93;;;2.92;;
28437;SDS011;15667;52.376;9.708;2023-03-01T14:08:02;4.85;;;3.08;;
28437;SDS011;15667;52.376;9.708;2023-03-01T14:10:35;7.43;;;2.95;;
28437;SDS011;15667;52.376;9.708;2023-03-01T14:16:12;6.68;;;3.50;;
28437;SDS011;15667;52.376;9.708;2023-03-01T14:21:32;5.50;;;2.80;;
28437;SDS011;15667;52.376;9.708;2023-03-01T14:23:58;5.13;;;3.05;;
28437;SDS011;15667;52.376;9.708;2023-03-01T14:26:24;7.55;;;3.00;;
28437;SDS011;15667;52.376;9.708;2023-03-01T14:28:50;5.90;;;3.08;;
28437;SDS011;15667;52.376;9.708;2023-03-01T14:31:30;6.80;;;3.30;;
28437;SDS011;15667;52.376;9.708;2023-03-01T14:34:01;8.13;;;2.75;;
28437;SDS011;15667;52.376;9.708;2023-03-01T14:36:29;7.38;;;3.10;;
28437;SDS011;15667;52.376;9.708;2023-03-01T14:38:57;5.55;;;2.80;;
28437;SDS011;15667;52.376;9.708;2023-03-01T14:41:29;4.50;;;2.63;;
28437;SDS011;15667;52.376;9.708;2023-03-01T14:44:06;5.47;;;2.78;;
28437;SDS011;15667;52.376;9.708;2023-03-01T14:46:38;5.93;;;2.70;;
28437;SDS011;15667;52.376;9.708;2023-03-01T14:49:13;5.18;;;2.55;;
28437;SDS011;15667;52.376;9.708;2023-03-01T14:54:27;5.43;;;2.60;;
28437;SDS011;15667;52.376;9.708;2023-03-01T14:56:54;5.15;;;2.50;;
28437;SDS011;15667;52.376;9.708;2023-03-01T14:59:24;5.05;;;2.63;;
28437;SDS011;15667;52.376;9.708;2023-03-01T15:01:51;4.38;;;2.40;;
28437;SDS011;15667;52.376;9.708;2023-03-01T15:04:20;5.47;;;2.60;;
28437;SDS011;15667;52.376;9.708;2023-03-01T15:06:47;7.65;;;2.42;;
28437;SDS011;15667;52.376;9.708;2023-03-01T15:09:16;3.63;;;2.30;;
28437;SDS011;15667;52.376;9.708;2023-03-01T15:11:43;6.10;;;2.70;;
28437;SDS011;15667;52.376;9.708;2023-03-01T15:14:26;9.10;;;2.60;;
28437;SDS011;15667;52.376;9.708;2023-03-01T15:16:52;6.07;;;2.70;;
28437;SDS011;15667;52.376;9.708;2023-03-01T15:19:17;4.22;;;2.25;;
28437;SDS011;15667;52.376;9.708;2023-03-01T15:21:44;6.38;;;2.30;;
28437;SDS011;15667;52.376;9.708;2023-03-01T15:29:27;8.10;;;3.05;;
28437;SDS011;15667;52.376;9.708;2023-03-01T15:32:03;7.90;;;3.20;;
28437;SDS011;15667;52.376;9.708;2023-03-01T15:34:34;9.82;;;3.13;;
28437;SDS011;15667;52.376;9.708;2023-03-01T15:37:02;5.78;;;2.58;;
28437;SDS011;15667;52.376;9.708;2023-03-01T15:39:35;5.40;;;2.78;;
28437;SDS011;15667;52.376;9.708;2023-03-01T15:44:31;5.38;;;3.17;;
28437;SDS011;15667;52.376;9.708;2023-03-01T15:46:58;6.20;;;3.22;;
28437;SDS011;15667;52.376;9.708;2023-03-01T15:49:31;9.45;;;2.88;;
28437;SDS011;15667;52.376;9.708;2023-03-01T15:52:03;5.80;;;3.22;;
28437;SDS011;15667;52.376;9.708;2023-03-01T15:54:29;8.95;;;3.80;;
28437;SDS011;15667;52.376;9.708;2023-03-01T15:56:55;7.13;;;2.95;;
28437;SDS011;15667;52.376;9.708;2023-03-01T15:59:21;7.53;;;3.05;;
28437;SDS011;15667;52.376;9.708;2023-03-01T16:01:47;7.03;;;2.90;;
28437;SDS011;15667;52.376;9.708;2023-03-01T16:04:14;7.07;;;3.53;;
28437;SDS011;15667;52.376;9.708;2023-03-01T16:06:49;7.65;;;3.13;;
28437;SDS011;15667;52.376;9.708;2023-03-01T16:09:20;6.45;;;2.88;;
28437;SDS011;15667;52.376;9.708;2023-03-01T16:11:50;8.70;;;2.97;;
28437;SDS011;15667;52.376;9.708;2023-03-01T16:14:17;6.70;;;2.85;;
28437;SDS011;15667;52.376;9.708;2023-03-01T16:16:43;5.95;;;3.05;;
28437;SDS011;15667;52.376;9.708;2023-03-01T16:19:09;6.57;;;3.00;;
28437;SDS011;15667;52.376;9.708;2023-03-01T16:21:35;9.48;;;3.30;;
28437;SDS011;15667;52.376;9.708;2023-03-01T16:24:01;7.63;;;3.28;;
28437;SDS011;15667;52.376;9.708;2023-03-01T16:26:27;6.47;;;3.15;;
28437;SDS011;15667;52.376;9.708;2023-03-01T16:28:56;5.75;;;3.28;;
28437;SDS011;15667;52.376;9.708;2023-03-01T16:31:23;7.50;;;3.38;;
28437;SDS011;15667;52.376;9.708;2023-03-01T16:33:53;8.60;;;3.08;;
28437;SDS011;15667;52.376;9.708;2023-03-01T16:36:20;7.53;;;2.60;;
28437;SDS011;15667;52.376;9.708;2023-03-01T16:38:48;8.20;;;3.03;;
28437;SDS011;15667;52.376;9.708;2023-03-01T16:41:15;4.43;;;2.88;;
28437;SDS011;15667;52.376;9.708;2023-03-01T16:43:42;5.45;;;2.95;;
28437;SDS011;15667;52.376;9.708;2023-03-01T16:46:12;7.95;;;2.83;;
28437;SDS011;15667;52.376;9.708;2023-03-01T16:48:39;5.30;;;2.70;;
28437;SDS011;15667;52.376;9.708;2023-03-01T16:51:05;7.82;;;2.92;;
28437;SDS011;15667;52.376;9.708;2023-03-01T16:53:45;5.22;;;2.97;;
28437;SDS011;15667;52.376;9.708;2023-03-01T16:56:42;5.13;;;3.08;;